North Lyme, Connecticut
Current Conditions -  °F | °C
As of 11:55 AM on Thursday 23 Oct 2014 (Local Time) from KSNC Reporting Station
Overcast Overcast  
Wind Chill: 54°   Ceiling: 1700
Heat Index: 54°   Visibility: 8mi
Dew Point: 46°   Wind: 10mph
Humidity: 77%   Direction: 360°N
Pressure: 29.63"   Gusts: 18mph
Location:  41.3657°N, 72.322°W
Report Text: KSNC 231555Z AUTO 36009G16KT 8SM OVC017 12/08 A2963 RMK AO2
Loading
Personal Weather Stations






























Interactive Weather Map
Tropical Storm Tracking
New forecast layout! Learn more

10-Day Weather Forecast

Advertisements
Track Severe Weather on mobile